weather.gov     
National Weather Service

Terminal Aerodrome Forecast
NWS Homepage
This page is being discontinued on March 12, 2014.
The same data is available at this site. Please update your bookmarks.
Thank you, and we apologize for the inconvenience.
Please send an email to SR-SRH.Webmaster@noaa.gov with any concerns.


Current Version
Previous Version:    01  02  03  04  05  06  07  08  09  10  11  12  13  14  15  16  17  18  19  20  21  22  23  24  25  26  27  28  29  30  
   31  
[Printable]
688
FTAK31 PAJN 211300 AAA
TAFAJN
TAF AMD
PAJN 211340Z 2114/2212 09006KT P6SM BCFG FEW030 SCT050 SCT080
      TEMPO 2114/2117 2SM BR BKN001
     FM211700 09011KT P6SM SCT030 BKN050 WS020/06025KT
     FM212000 10013G21KT P6SM VCSH SCT025 OVC050 WS020/06030KT
     FM220500 10015G25KT P6SM -RA SCT020 BKN040 OVC060 WS020/10035KT
     FM221100 10015G26KT P6SM -SHRA SCT020 BKN040 OVC060
      WS020/12035KT=


U.S. Dept. of Commerce
NOAA National Weather Service
1325 East West Highway
Silver Spring, MD 20910
E-mail: w-nws.webmaster@noaa.gov
Page last modified: May 16, 2007
NATIONAL WEATHER SERVICE: for Safety, for Work, for Fun - FOR LIFE